createdAt,value
2018-09-03T00:01:17.714Z,954.95
2018-09-03T00:03:44.064Z,954.86
2018-09-03T00:06:10.379Z,954.90
2018-09-03T00:08:36.738Z,954.89
2018-09-03T00:11:03.057Z,954.78
2018-09-03T00:13:29.416Z,954.91
2018-09-03T00:15:55.743Z,954.83
2018-09-03T00:18:22.052Z,954.87
2018-09-03T00:20:48.383Z,954.92
2018-09-03T00:23:14.724Z,954.90
2018-09-03T00:25:41.090Z,954.82
2018-09-03T00:28:07.410Z,954.87
2018-09-03T00:30:33.823Z,954.82
2018-09-03T00:33:00.115Z,954.75
2018-09-03T00:35:28.157Z,954.87
2018-09-03T00:37:54.533Z,954.85
2018-09-03T00:40:20.855Z,954.84
2018-09-03T00:42:47.201Z,954.74
2018-09-03T00:45:13.530Z,954.69
2018-09-03T00:47:39.910Z,954.74
2018-09-03T00:50:06.227Z,954.75
2018-09-03T00:52:32.560Z,954.63
2018-09-03T00:54:58.873Z,954.66
2018-09-03T00:57:25.195Z,954.73
2018-09-03T00:59:51.513Z,954.70
2018-09-03T01:02:17.836Z,954.77
2018-09-03T01:04:44.147Z,954.78
2018-09-03T01:07:10.470Z,954.67
2018-09-03T01:09:36.783Z,954.73
2018-09-03T01:12:03.101Z,954.76
2018-09-03T01:14:29.413Z,954.78
2018-09-03T01:16:55.736Z,954.73
2018-09-03T01:19:22.090Z,954.87
2018-09-03T01:21:48.430Z,954.81
2018-09-03T01:24:14.754Z,954.77
2018-09-03T01:26:41.070Z,954.86
2018-09-03T01:29:07.385Z,954.80
2018-09-03T01:31:33.754Z,954.76
2018-09-03T01:34:00.067Z,954.81
2018-09-03T01:36:26.397Z,954.81
2018-09-03T01:38:52.755Z,954.80
2018-09-03T01:41:19.081Z,954.78
2018-09-03T01:43:45.402Z,954.74
2018-09-03T01:46:11.748Z,954.78
2018-09-03T01:48:38.065Z,954.70
2018-09-03T01:51:04.382Z,954.72
2018-09-03T01:53:30.716Z,954.70
2018-09-03T01:55:57.030Z,954.67
2018-09-03T01:58:23.345Z,954.62
2018-09-03T02:00:49.664Z,954.67
2018-09-03T02:03:15.976Z,954.61
2018-09-03T02:05:42.288Z,954.66
2018-09-03T02:08:08.636Z,954.57
2018-09-03T02:10:34.966Z,954.51
2018-09-03T02:13:01.301Z,954.53
2018-09-03T02:15:27.673Z,954.57
2018-09-03T02:17:54.020Z,954.61
2018-09-03T02:20:20.388Z,954.53
2018-09-03T02:22:46.735Z,954.51
2018-09-03T02:25:13.058Z,954.45
2018-09-03T02:27:39.395Z,954.36
2018-09-03T02:30:05.760Z,954.44
2018-09-03T02:32:32.086Z,954.48
2018-09-03T02:34:58.444Z,954.45
2018-09-03T02:37:24.791Z,954.40
2018-09-03T02:39:51.158Z,954.42
2018-09-03T02:42:17.513Z,954.40
2018-09-03T02:44:43.833Z,954.34
2018-09-03T02:47:10.184Z,954.27
2018-09-03T02:49:36.504Z,954.33
2018-09-03T02:52:02.868Z,954.30
2018-09-03T02:54:29.189Z,954.35
2018-09-03T02:56:55.560Z,954.33
2018-09-03T02:59:21.872Z,954.30
2018-09-03T03:01:48.191Z,954.31
2018-09-03T03:04:14.508Z,954.30
2018-09-03T03:06:40.865Z,954.30
2018-09-03T03:09:07.187Z,954.29
2018-09-03T03:11:33.549Z,954.29
2018-09-03T03:13:59.818Z,954.24
2018-09-03T03:16:26.131Z,954.22
2018-09-03T03:18:52.452Z,954.21
2018-09-03T03:21:18.763Z,954.15
2018-09-03T03:23:45.076Z,954.04
2018-09-03T03:26:11.435Z,954.15
2018-09-03T03:28:37.752Z,954.14
2018-09-03T03:31:04.063Z,954.08
2018-09-03T03:33:30.371Z,954.10
2018-09-03T03:35:56.693Z,954.07
2018-09-03T03:38:23.015Z,954.12
2018-09-03T03:40:49.353Z,954.08
2018-09-03T03:43:15.669Z,954.08
2018-09-03T03:45:41.975Z,954.20
2018-09-03T03:48:08.311Z,954.12
2018-09-03T03:50:34.632Z,954.12
2018-09-03T03:53:00.959Z,954.12
2018-09-03T03:55:27.271Z,954.09
2018-09-03T03:57:53.598Z,954.17
2018-09-03T04:00:19.922Z,954.10
2018-09-03T04:02:46.238Z,954.10
2018-09-03T04:05:12.557Z,954.14
2018-09-03T04:07:38.891Z,954.12
2018-09-03T04:10:05.226Z,954.14
2018-09-03T04:12:31.546Z,954.02
2018-09-03T04:14:57.868Z,954.01
2018-09-03T04:17:24.200Z,953.99
2018-09-03T04:19:50.523Z,954.01
2018-09-03T04:22:16.849Z,953.93
2018-09-03T04:24:43.201Z,953.90
2018-09-03T04:27:09.520Z,953.88
2018-09-03T04:29:35.851Z,953.84
2018-09-03T04:32:02.179Z,953.84
2018-09-03T04:34:28.494Z,953.88
2018-09-03T04:36:54.820Z,953.89
2018-09-03T04:39:21.173Z,953.83
2018-09-03T04:41:47.514Z,953.79
2018-09-03T04:44:13.833Z,953.86
2018-09-03T04:46:40.204Z,953.87
2018-09-03T04:49:06.519Z,953.83
2018-09-03T04:51:32.890Z,953.88
2018-09-03T04:53:59.214Z,953.78
2018-09-03T04:56:25.536Z,953.82
2018-09-03T04:58:51.851Z,953.78
2018-09-03T05:01:18.183Z,953.72
2018-09-03T05:03:44.522Z,953.71
2018-09-03T05:06:10.903Z,953.68
2018-09-03T05:08:37.174Z,953.72
2018-09-03T05:11:03.497Z,953.74
2018-09-03T05:13:29.827Z,953.64
2018-09-03T05:15:56.151Z,953.72
2018-09-03T05:18:22.488Z,953.69
2018-09-03T05:20:48.838Z,953.71
2018-09-03T05:23:15.174Z,953.77
2018-09-03T05:25:41.500Z,953.78
2018-09-03T05:28:07.842Z,953.75
2018-09-03T05:30:34.180Z,953.71
2018-09-03T05:33:00.517Z,953.83
2018-09-03T05:35:26.884Z,953.87
2018-09-03T05:37:53.170Z,953.92
2018-09-03T05:40:19.494Z,953.92
2018-09-03T05:42:45.820Z,953.89
2018-09-03T05:45:12.196Z,953.91
2018-09-03T05:47:38.480Z,953.98
2018-09-03T05:50:04.815Z,953.90
2018-09-03T05:52:31.119Z,953.90
2018-09-03T05:54:57.466Z,953.85
2018-09-03T05:57:23.795Z,953.85
2018-09-03T05:59:50.119Z,953.87
2018-09-03T06:02:16.461Z,953.90
2018-09-03T06:04:42.778Z,953.89
2018-09-03T06:07:09.131Z,953.88
2018-09-03T06:09:35.420Z,953.90
2018-09-03T06:12:01.732Z,953.91
2018-09-03T06:14:28.076Z,953.97
2018-09-03T06:16:54.382Z,954.00
2018-09-03T06:19:20.729Z,953.95
2018-09-03T06:21:47.061Z,953.97
2018-09-03T06:24:13.446Z,953.94
2018-09-03T06:26:39.814Z,953.98
2018-09-03T06:29:06.106Z,953.95
2018-09-03T06:31:32.435Z,953.94
2018-09-03T06:33:58.769Z,953.86
2018-09-03T06:36:25.101Z,953.87
2018-09-03T06:38:51.449Z,953.84
2018-09-03T06:41:17.773Z,953.82
2018-09-03T06:43:44.104Z,953.84
2018-09-03T06:46:10.421Z,953.68
2018-09-03T06:48:36.747Z,953.69
2018-09-03T06:51:03.066Z,953.63
2018-09-03T06:53:29.453Z,953.71
2018-09-03T06:55:55.728Z,953.65
2018-09-03T06:58:22.056Z,953.64
2018-09-03T07:00:48.404Z,953.58
2018-09-03T07:03:14.739Z,953.60
2018-09-03T07:05:41.076Z,953.57
2018-09-03T07:08:07.400Z,953.68
2018-09-03T07:10:33.731Z,953.63
2018-09-03T07:13:00.093Z,953.64
2018-09-03T07:15:26.430Z,953.69
2018-09-03T07:17:52.752Z,953.63
2018-09-03T07:20:19.131Z,953.61
2018-09-03T07:22:45.410Z,953.62
2018-09-03T07:25:11.741Z,953.58
2018-09-03T07:27:38.074Z,953.61
2018-09-03T07:30:04.394Z,953.66
2018-09-03T07:32:30.720Z,953.58
2018-09-03T07:34:57.057Z,953.59
2018-09-03T07:37:23.457Z,953.59
2018-09-03T07:39:49.803Z,953.51
2018-09-03T07:42:16.118Z,953.55
2018-09-03T07:44:42.441Z,953.52
2018-09-03T07:47:08.770Z,953.51
2018-09-03T07:49:35.098Z,953.61
2018-09-03T07:52:01.428Z,953.52
2018-09-03T07:54:27.822Z,953.43
2018-09-03T07:56:54.136Z,953.58
2018-09-03T07:59:20.465Z,953.46
2018-09-03T08:01:46.783Z,953.41
2018-09-03T08:04:13.139Z,953.48
2018-09-03T08:06:39.430Z,953.36
2018-09-03T08:09:05.755Z,953.34
2018-09-03T08:11:32.083Z,953.34
2018-09-03T08:13:58.391Z,953.36
2018-09-03T08:16:24.705Z,953.31
2018-09-03T08:18:51.055Z,953.35
2018-09-03T08:21:17.382Z,953.37
2018-09-03T08:23:43.710Z,953.23
2018-09-03T08:26:10.088Z,953.24
2018-09-03T08:28:36.412Z,953.19
2018-09-03T08:31:02.793Z,953.13
2018-09-03T08:33:29.139Z,953.15
2018-09-03T08:35:55.479Z,953.06
2018-09-03T08:38:21.825Z,953.09
2018-09-03T08:40:48.160Z,952.93
2018-09-03T08:43:14.487Z,952.84
2018-09-03T08:45:40.805Z,952.89
2018-09-03T08:48:07.150Z,952.77
2018-09-03T08:50:33.463Z,952.66
2018-09-03T08:52:59.799Z,952.73
2018-09-03T08:55:26.128Z,952.71
2018-09-03T08:57:52.451Z,952.67
2018-09-03T09:00:18.765Z,952.69
2018-09-03T09:02:45.105Z,952.64
2018-09-03T09:05:11.428Z,952.65
2018-09-03T09:07:37.778Z,952.59
2018-09-03T09:10:04.122Z,952.53
2018-09-03T09:12:30.435Z,952.55
2018-09-03T09:14:56.748Z,952.53
2018-09-03T09:17:23.080Z,952.48
2018-09-03T09:19:49.392Z,952.44
2018-09-03T09:22:15.714Z,952.45
2018-09-03T09:24:42.043Z,952.32
2018-09-03T09:27:08.395Z,952.28
2018-09-03T09:29:34.713Z,952.33
2018-09-03T09:32:01.024Z,952.27
2018-09-03T09:34:27.332Z,952.17
2018-09-03T09:36:53.666Z,952.14
2018-09-03T09:39:19.968Z,952.15
2018-09-03T09:41:46.276Z,952.13
2018-09-03T09:44:12.592Z,952.15
2018-09-03T09:46:38.903Z,952.14
2018-09-03T09:49:05.239Z,952.07
2018-09-03T09:51:31.560Z,951.93
2018-09-03T09:53:57.864Z,951.95
2018-09-03T09:56:24.194Z,951.91
2018-09-03T09:58:50.504Z,951.84
2018-09-03T10:01:16.821Z,951.89
2018-09-03T10:03:43.146Z,951.84
2018-09-03T10:06:09.460Z,951.92
2018-09-03T10:08:35.776Z,951.82
2018-09-03T10:11:02.102Z,951.74
2018-09-03T10:13:28.437Z,951.73
2018-09-03T10:15:54.760Z,951.66
2018-09-03T10:18:21.072Z,951.69
2018-09-03T10:20:47.466Z,951.70
2018-09-03T10:23:13.750Z,951.72
2018-09-03T10:25:40.101Z,951.63
2018-09-03T10:28:06.413Z,951.63
2018-09-03T10:30:32.723Z,951.58
2018-09-03T10:32:59.050Z,951.42
2018-09-03T10:35:25.360Z,951.44
2018-09-03T10:37:51.688Z,951.44
2018-09-03T10:40:18.015Z,951.37
2018-09-03T10:42:44.347Z,951.33
2018-09-03T10:45:10.668Z,951.32
2018-09-03T10:47:37.061Z,951.30
2018-09-03T10:50:03.320Z,951.24
2018-09-03T10:52:29.629Z,951.19
2018-09-03T10:54:55.984Z,951.09
2018-09-03T10:57:22.319Z,951.11
2018-09-03T10:59:48.644Z,951.07
2018-09-03T11:02:14.960Z,951.17
2018-09-03T11:04:41.289Z,951.08
2018-09-03T11:07:07.604Z,951.13
2018-09-03T11:09:33.912Z,951.12
2018-09-03T11:12:00.228Z,951.03
2018-09-03T11:14:26.549Z,951.15
2018-09-03T11:16:52.875Z,951.12
2018-09-03T11:19:19.188Z,951.13
2018-09-03T11:21:45.513Z,951.09
2018-09-03T11:24:11.820Z,951.08
2018-09-03T11:26:38.198Z,950.96
2018-09-03T11:29:04.511Z,950.86
2018-09-03T11:31:30.835Z,950.92
2018-09-03T11:33:57.170Z,950.86
2018-09-03T11:36:23.495Z,950.87
2018-09-03T11:38:49.818Z,950.85
2018-09-03T11:41:16.127Z,950.88
2018-09-03T11:43:42.438Z,950.86
2018-09-03T11:46:08.747Z,950.85
2018-09-03T11:48:35.059Z,950.82
2018-09-03T11:51:01.374Z,950.86
2018-09-03T11:53:27.686Z,950.85
2018-09-03T11:55:54.000Z,950.94
2018-09-03T11:58:20.328Z,950.90
2018-09-03T12:00:46.660Z,950.97
2018-09-03T12:03:12.967Z,950.96
2018-09-03T12:05:39.294Z,951.15
2018-09-03T12:08:05.621Z,951.02
2018-09-03T12:10:31.931Z,950.97
2018-09-03T12:12:58.259Z,951.15
2018-09-03T12:15:24.591Z,951.13
2018-09-03T12:17:50.932Z,951.31
2018-09-03T12:20:17.254Z,951.35
2018-09-03T12:22:43.586Z,951.35
2018-09-03T12:25:09.915Z,951.30
2018-09-03T12:27:36.296Z,951.24
2018-09-03T12:30:05.828Z,951.27
2018-09-03T12:32:32.173Z,951.08
2018-09-03T12:34:58.526Z,951.17
2018-09-03T12:37:24.851Z,951.10
2018-09-03T12:39:51.215Z,951.19
2018-09-03T12:42:17.540Z,951.10
2018-09-03T12:44:43.918Z,951.10
2018-09-03T12:47:10.244Z,951.12
2018-09-03T12:49:36.571Z,951.06
2018-09-03T12:52:02.901Z,951.15
2018-09-03T12:54:29.282Z,951.04
2018-09-03T12:56:55.654Z,951.07
2018-09-03T12:59:21.985Z,951.06
2018-09-03T13:01:48.327Z,951.07
2018-09-03T13:04:14.709Z,951.02
2018-09-03T13:06:40.979Z,950.90
2018-09-03T13:09:07.301Z,950.88
2018-09-03T13:11:33.662Z,950.85
2018-09-03T13:13:59.984Z,950.81
2018-09-03T13:16:26.345Z,950.72
2018-09-03T13:18:52.687Z,950.72
2018-09-03T13:21:19.007Z,950.58
2018-09-03T13:23:45.359Z,950.49
2018-09-03T13:26:11.683Z,950.47
2018-09-03T13:28:38.061Z,950.41
2018-09-03T13:31:04.395Z,950.42
2018-09-03T13:33:30.726Z,950.31
2018-09-03T13:35:57.110Z,950.31
2018-09-03T13:38:23.364Z,950.20
2018-09-03T13:40:49.675Z,950.16
2018-09-03T13:43:16.013Z,950.10
2018-09-03T13:45:42.350Z,950.08
2018-09-03T13:48:08.747Z,950.22
2018-09-03T13:50:35.028Z,950.13
2018-09-03T13:53:01.353Z,950.20
2018-09-03T13:55:27.695Z,950.23
2018-09-03T13:57:54.032Z,950.23
2018-09-03T14:00:20.340Z,950.28
2018-09-03T14:02:46.673Z,950.23
2018-09-03T14:05:12.999Z,950.24
2018-09-03T14:07:39.306Z,950.18
2018-09-03T14:10:05.681Z,950.23
2018-09-03T14:12:31.953Z,950.26
2018-09-03T14:14:58.275Z,950.17
2018-09-03T14:17:24.590Z,950.25
2018-09-03T14:19:50.915Z,950.29
2018-09-03T14:22:17.247Z,950.29
2018-09-03T14:24:43.536Z,950.19
2018-09-03T14:27:09.858Z,950.27
2018-09-03T14:29:36.184Z,950.27
2018-09-03T14:32:02.529Z,950.31
2018-09-03T14:34:28.848Z,950.33
2018-09-03T14:36:55.187Z,950.39
2018-09-03T14:39:21.504Z,950.38
2018-09-03T14:41:47.828Z,950.38
2018-09-03T14:44:14.175Z,950.35
2018-09-03T14:46:40.519Z,950.35
2018-09-03T14:49:06.852Z,950.31
2018-09-03T14:51:33.236Z,950.25
2018-09-03T14:53:59.551Z,950.22
2018-09-03T14:56:25.903Z,950.20
2018-09-03T14:58:52.229Z,950.17
2018-09-03T15:01:18.641Z,950.19
2018-09-03T15:03:44.957Z,950.12
2018-09-03T15:06:11.287Z,950.04
2018-09-03T15:08:37.620Z,950.00
2018-09-03T15:11:03.944Z,950.02
2018-09-03T15:13:30.315Z,950.04
2018-09-03T15:15:56.624Z,950.03
2018-09-03T15:18:22.944Z,950.03
2018-09-03T15:20:49.312Z,950.06
2018-09-03T15:23:15.651Z,950.06
2018-09-03T15:25:41.929Z,950.04
2018-09-03T15:28:08.253Z,949.98
2018-09-03T15:30:34.591Z,949.93
2018-09-03T15:33:00.904Z,949.98
2018-09-03T15:35:27.241Z,950.02
2018-09-03T15:37:53.560Z,950.02
2018-09-03T15:40:19.888Z,950.07
2018-09-03T15:42:46.235Z,950.04
2018-09-03T15:45:12.561Z,950.00
2018-09-03T15:47:38.893Z,949.99
2018-09-03T15:50:05.249Z,949.96
2018-09-03T15:52:31.575Z,950.02
2018-09-03T15:54:57.888Z,949.97
2018-09-03T15:57:24.229Z,950.03
2018-09-03T15:59:50.559Z,950.13
2018-09-03T16:02:16.887Z,950.12
2018-09-03T16:04:43.214Z,950.14
2018-09-03T16:07:09.538Z,950.27
2018-09-03T16:09:35.863Z,950.27
2018-09-03T16:12:02.194Z,950.37
2018-09-03T16:14:28.523Z,950.41
2018-09-03T16:16:54.852Z,950.41
2018-09-03T16:19:21.199Z,950.50
2018-09-03T16:21:47.508Z,950.52
2018-09-03T16:24:13.856Z,950.43
2018-09-03T16:26:40.168Z,950.51
2018-09-03T16:29:06.492Z,950.58
2018-09-03T16:31:32.819Z,950.59
2018-09-03T16:33:59.146Z,950.73
2018-09-03T16:36:25.460Z,950.75
2018-09-03T16:38:51.869Z,950.87
2018-09-03T16:41:18.122Z,950.90
2018-09-03T16:43:44.432Z,950.91
2018-09-03T16:46:10.749Z,950.92
2018-09-03T16:48:37.079Z,950.86
2018-09-03T16:51:03.410Z,950.81
2018-09-03T16:53:29.760Z,950.85
2018-09-03T16:55:56.087Z,950.84
2018-09-03T16:58:22.454Z,950.89
2018-09-03T17:00:48.832Z,950.84
2018-09-03T17:03:15.143Z,950.84
2018-09-03T17:05:41.475Z,950.80
2018-09-03T17:08:07.934Z,950.77
2018-09-03T17:10:34.208Z,950.76
2018-09-03T17:13:00.534Z,950.78
2018-09-03T17:15:26.844Z,950.75
2018-09-03T17:17:53.156Z,950.77
2018-09-03T17:20:19.550Z,950.73
2018-09-03T17:22:45.786Z,950.75
2018-09-03T17:25:12.160Z,950.74
2018-09-03T17:27:38.480Z,950.73
2018-09-03T17:30:04.792Z,950.60
2018-09-03T17:32:31.134Z,950.51
2018-09-03T17:34:57.453Z,950.52
2018-09-03T17:37:23.777Z,950.47
2018-09-03T17:39:50.091Z,950.52
2018-09-03T17:42:16.426Z,950.54
2018-09-03T17:44:42.760Z,950.57
2018-09-03T17:47:09.086Z,950.62
2018-09-03T17:49:35.446Z,950.60
2018-09-03T17:52:01.771Z,950.47
2018-09-03T17:54:28.095Z,950.52
2018-09-03T17:56:54.432Z,950.55
2018-09-03T17:59:20.741Z,950.57
2018-09-03T18:01:47.069Z,950.61
2018-09-03T18:04:13.382Z,950.67
2018-09-03T18:06:39.710Z,950.63
2018-09-03T18:09:06.027Z,950.69
2018-09-03T18:11:32.389Z,950.63
2018-09-03T18:13:58.776Z,950.69
2018-09-03T18:16:25.193Z,950.71
2018-09-03T18:18:51.453Z,950.70
2018-09-03T18:21:17.777Z,950.80
2018-09-03T18:23:44.105Z,950.78
2018-09-03T18:26:10.417Z,950.87
2018-09-03T18:28:36.734Z,950.75
2018-09-03T18:31:04.714Z,950.81
2018-09-03T18:33:29.380Z,950.78
2018-09-03T18:35:55.730Z,950.80
2018-09-03T18:38:22.023Z,950.78
2018-09-03T18:40:48.352Z,950.70
2018-09-03T18:43:14.677Z,950.66
2018-09-03T18:45:41.012Z,950.72
2018-09-03T18:48:07.337Z,950.73
2018-09-03T18:50:33.651Z,950.68
2018-09-03T18:52:59.959Z,950.63
2018-09-03T18:55:26.288Z,950.63
2018-09-03T18:57:52.619Z,950.75
2018-09-03T19:00:18.961Z,950.78
2018-09-03T19:02:45.245Z,950.72
2018-09-03T19:05:11.555Z,950.71
2018-09-03T19:07:37.923Z,950.80
2018-09-03T19:10:04.247Z,950.90
2018-09-03T19:12:30.582Z,951.07
2018-09-03T19:14:56.895Z,951.20
2018-09-03T19:17:23.263Z,951.21
2018-09-03T19:19:49.572Z,951.32
2018-09-03T19:22:15.909Z,951.30
2018-09-03T19:24:42.221Z,951.27
2018-09-03T19:27:08.550Z,951.30
2018-09-03T19:29:34.879Z,951.19
2018-09-03T19:32:01.198Z,951.17
2018-09-03T19:34:27.531Z,951.22
2018-09-03T19:36:53.881Z,951.26
2018-09-03T19:39:20.227Z,951.25
2018-09-03T19:41:46.577Z,951.19
2018-09-03T19:44:12.904Z,951.13
2018-09-03T19:46:39.216Z,951.23
2018-09-03T19:49:05.531Z,951.29
2018-09-03T19:51:31.899Z,951.28
2018-09-03T19:53:58.228Z,951.35
2018-09-03T19:56:24.555Z,951.39
2018-09-03T19:58:50.927Z,951.46
2018-09-03T20:01:17.256Z,951.59
2018-09-03T20:03:43.626Z,951.55
2018-09-03T20:06:10.040Z,951.67
2018-09-03T20:08:36.305Z,951.60
2018-09-03T20:11:02.630Z,951.54
2018-09-03T20:13:28.951Z,951.52
2018-09-03T20:15:55.250Z,951.44
2018-09-03T20:18:21.566Z,951.38
2018-09-03T20:20:47.889Z,951.31
2018-09-03T20:23:14.262Z,951.15
2018-09-03T20:25:40.552Z,951.11
2018-09-03T20:28:06.880Z,951.26
2018-09-03T20:30:33.252Z,951.38
2018-09-03T20:32:59.514Z,951.49
2018-09-03T20:35:25.834Z,951.55
2018-09-03T20:37:52.139Z,951.63
2018-09-03T20:40:18.493Z,951.74
2018-09-03T20:42:44.858Z,951.86
2018-09-03T20:45:11.126Z,951.89
2018-09-03T20:47:37.455Z,952.03
2018-09-03T20:50:03.770Z,952.05
2018-09-03T20:52:30.085Z,952.11
2018-09-03T20:54:56.410Z,951.89
2018-09-03T20:57:22.743Z,951.84
2018-09-03T20:59:49.142Z,951.84
2018-09-03T21:02:15.475Z,951.84
2018-09-03T21:04:41.814Z,951.77
2018-09-03T21:07:08.140Z,951.64
2018-09-03T21:09:34.476Z,951.55
2018-09-03T21:12:00.822Z,951.55
2018-09-03T21:14:28.302Z,951.61
2018-09-03T21:16:54.607Z,951.56
2018-09-03T21:19:21.001Z,951.53
2018-09-03T21:21:49.821Z,951.54
2018-09-03T21:24:16.246Z,951.50
2018-09-03T21:26:42.601Z,951.60
2018-09-03T21:29:09.015Z,951.69
2018-09-03T21:31:35.385Z,951.70
2018-09-03T21:34:01.723Z,951.73
2018-09-03T21:36:28.069Z,951.77
2018-09-03T21:38:54.430Z,951.77
2018-09-03T21:41:20.748Z,951.67
2018-09-03T21:43:47.097Z,951.73
2018-09-03T21:46:13.414Z,951.66
2018-09-03T21:48:39.741Z,951.64
2018-09-03T21:51:06.059Z,951.58
2018-09-03T21:53:32.377Z,951.56
2018-09-03T21:55:58.699Z,951.60
2018-09-03T21:58:25.053Z,951.60
2018-09-03T22:00:51.382Z,951.52
2018-09-03T22:03:17.713Z,951.54
2018-09-03T22:05:44.032Z,951.48
2018-09-03T22:08:10.356Z,951.48
2018-09-03T22:10:36.669Z,951.45
2018-09-03T22:13:03.047Z,951.37
2018-09-03T22:15:29.355Z,951.32
2018-09-03T22:17:55.663Z,951.30
2018-09-03T22:20:21.985Z,951.30
2018-09-03T22:22:48.304Z,951.27
2018-09-03T22:25:14.676Z,951.35
2018-09-03T22:27:41.003Z,951.32
2018-09-03T22:30:07.359Z,951.28
2018-09-03T22:32:33.725Z,951.29
2018-09-03T22:35:00.081Z,951.29
2018-09-03T22:37:26.395Z,951.29
2018-09-03T22:39:52.759Z,951.32
2018-09-03T22:42:19.070Z,951.24
2018-09-03T22:44:45.391Z,951.12
2018-09-03T22:47:11.704Z,951.13
2018-09-03T22:49:38.090Z,951.12
2018-09-03T22:52:04.411Z,951.08
2018-09-03T22:54:30.735Z,951.01
2018-09-03T22:56:57.079Z,950.96
2018-09-03T22:59:23.427Z,950.85
2018-09-03T23:01:49.796Z,950.88
2018-09-03T23:04:16.179Z,950.91
2018-09-03T23:06:42.502Z,950.99
2018-09-03T23:09:08.832Z,951.04
2018-09-03T23:11:35.143Z,951.07
2018-09-03T23:14:01.495Z,951.00
2018-09-03T23:16:27.818Z,951.05
2018-09-03T23:18:54.169Z,951.03
2018-09-03T23:21:20.492Z,951.03
2018-09-03T23:23:46.837Z,950.98
2018-09-03T23:26:13.201Z,950.92
2018-09-03T23:28:39.554Z,950.94
2018-09-03T23:31:05.884Z,950.93
2018-09-03T23:33:32.202Z,950.93
2018-09-03T23:35:58.525Z,950.92
2018-09-03T23:38:24.853Z,950.81
2018-09-03T23:40:51.182Z,950.88
2018-09-03T23:43:17.543Z,950.93
2018-09-03T23:45:43.906Z,950.92
2018-09-03T23:48:10.194Z,950.89
2018-09-03T23:50:36.581Z,950.85
2018-09-03T23:53:02.925Z,950.94
2018-09-03T23:55:29.292Z,950.96
2018-09-03T23:57:55.642Z,950.83
